sensor_id;sensor_type;location;lat;lon;timestamp;pressure;altitude;pressure_sealevel;temperature;humidity
79544;BME280;68994;47.176;7.534;2023-07-13T00:01:27;96133.97;;;18.88;77.71
79544;BME280;68994;47.176;7.534;2023-07-13T00:03:54;96137.91;;;19.04;75.63
79544;BME280;68994;47.176;7.534;2023-07-13T00:06:21;96154.00;;;18.87;76.68
79544;BME280;68994;47.176;7.534;2023-07-13T00:08:47;96145.13;;;18.72;77.70
79544;BME280;68994;47.176;7.534;2023-07-13T00:11:15;96168.31;;;18.87;78.29
79544;BME280;68994;47.176;7.534;2023-07-13T00:13:42;96174.91;;;18.59;85.35
79544;BME280;68994;47.176;7.534;2023-07-13T00:16:11;96182.38;;;17.97;89.80
79544;BME280;68994;47.176;7.534;2023-07-13T00:18:39;96186.22;;;17.64;91.75
79544;BME280;68994;47.176;7.534;2023-07-13T00:21:06;96169.06;;;17.13;92.74
79544;BME280;68994;47.176;7.534;2023-07-13T00:23:33;96170.28;;;16.82;94.64
79544;BME280;68994;47.176;7.534;2023-07-13T00:26:00;96155.69;;;16.69;96.12
79544;BME280;68994;47.176;7.534;2023-07-13T00:28:27;96167.69;;;16.58;95.84
79544;BME280;68994;47.176;7.534;2023-07-13T00:30:53;96166.50;;;16.45;96.55
79544;BME280;68994;47.176;7.534;2023-07-13T00:33:22;96156.03;;;16.44;97.57
79544;BME280;68994;47.176;7.534;2023-07-13T00:35:49;96167.41;;;16.41;97.14
79544;BME280;68994;47.176;7.534;2023-07-13T00:38:16;96167.69;;;16.39;97.03
79544;BME280;68994;47.176;7.534;2023-07-13T00:40:43;96179.47;;;16.43;97.50
79544;BME280;68994;47.176;7.534;2023-07-13T00:43:11;96188.19;;;16.35;97.48
79544;BME280;68994;47.176;7.534;2023-07-13T00:48:53;96172.34;;;16.33;98.25
79544;BME280;68994;47.176;7.534;2023-07-13T00:51:25;96176.41;;;16.31;97.95
79544;BME280;68994;47.176;7.534;2023-07-13T00:53:53;96164.25;;;16.33;98.26
79544;BME280;68994;47.176;7.534;2023-07-13T00:56:21;96161.78;;;16.37;98.78
79544;BME280;68994;47.176;7.534;2023-07-13T00:58:48;96157.72;;;16.40;98.87
79544;BME280;68994;47.176;7.534;2023-07-13T01:01:15;96159.47;;;16.49;98.97
79544;BME280;68994;47.176;7.534;2023-07-13T01:03:42;96166.09;;;16.38;98.54
79544;BME280;68994;47.176;7.534;2023-07-13T01:06:10;96166.16;;;16.33;98.81
79544;BME280;68994;47.176;7.534;2023-07-13T01:08:37;96162.66;;;16.32;98.89
79544;BME280;68994;47.176;7.534;2023-07-13T01:11:05;96171.69;;;16.42;99.59
79544;BME280;68994;47.176;7.534;2023-07-13T01:13:33;96179.91;;;16.50;99.63
79544;BME280;68994;47.176;7.534;2023-07-13T01:16:04;96178.59;;;16.67;100.00
79544;BME280;68994;47.176;7.534;2023-07-13T01:18:33;96190.56;;;16.80;100.00
79544;BME280;68994;47.176;7.534;2023-07-13T01:21:02;96178.09;;;16.65;99.77
79544;BME280;68994;47.176;7.534;2023-07-13T01:23:30;96169.06;;;16.56;99.04
79544;BME280;68994;47.176;7.534;2023-07-13T01:25:58;96172.44;;;16.47;98.58
79544;BME280;68994;47.176;7.534;2023-07-13T01:28:26;96181.03;;;16.49;99.37
79544;BME280;68994;47.176;7.534;2023-07-13T01:30:54;96179.63;;;16.71;99.99
79544;BME280;68994;47.176;7.534;2023-07-13T01:33:21;96181.16;;;16.77;99.17
79544;BME280;68994;47.176;7.534;2023-07-13T01:35:47;96168.88;;;16.71;98.84
79544;BME280;68994;47.176;7.534;2023-07-13T01:38:19;96179.34;;;16.54;98.60
79544;BME280;68994;47.176;7.534;2023-07-13T01:40:46;96158.34;;;16.50;99.26
79544;BME280;68994;47.176;7.534;2023-07-13T01:43:13;96162.38;;;16.53;99.88
79544;BME280;68994;47.176;7.534;2023-07-13T01:45:40;96162.38;;;16.53;99.56
79544;BME280;68994;47.176;7.534;2023-07-13T01:48:09;96160.56;;;16.48;99.28
79544;BME280;68994;47.176;7.534;2023-07-13T01:50:35;96168.69;;;16.43;99.37
79544;BME280;68994;47.176;7.534;2023-07-13T01:53:03;96165.72;;;16.45;99.45
79544;BME280;68994;47.176;7.534;2023-07-13T01:55:31;96161.56;;;16.33;98.89
79544;BME280;68994;47.176;7.534;2023-07-13T01:57:58;96153.25;;;16.30;99.17
79544;BME280;68994;47.176;7.534;2023-07-13T02:00:25;96160.19;;;16.36;99.04
79544;BME280;68994;47.176;7.534;2023-07-13T02:02:52;96159.47;;;16.49;98.38
79544;BME280;68994;47.176;7.534;2023-07-13T02:05:18;96163.97;;;16.35;98.99
79544;BME280;68994;47.176;7.534;2023-07-13T02:07:45;96162.56;;;16.19;98.24
79544;BME280;68994;47.176;7.534;2023-07-13T02:10:12;96168.63;;;16.10;98.49
79544;BME280;68994;47.176;7.534;2023-07-13T02:12:40;96165.94;;;16.10;99.05
79544;BME280;68994;47.176;7.534;2023-07-13T02:15:08;96159.06;;;15.99;98.73
79544;BME280;68994;47.176;7.534;2023-07-13T02:17:35;96157.72;;;15.97;98.98
79544;BME280;68994;47.176;7.534;2023-07-13T02:20:03;96155.84;;;15.97;98.98
79544;BME280;68994;47.176;7.534;2023-07-13T02:22:31;96158.56;;;15.97;99.37
79544;BME280;68994;47.176;7.534;2023-07-13T02:24:57;96156.94;;;15.96;98.99
79544;BME280;68994;47.176;7.534;2023-07-13T02:27:24;96157.78;;;16.16;99.56
79544;BME280;68994;47.176;7.534;2023-07-13T02:29:52;96157.78;;;16.16;99.33
79544;BME280;68994;47.176;7.534;2023-07-13T02:32:19;96155.31;;;16.19;98.51
79544;BME280;68994;47.176;7.534;2023-07-13T02:34:45;96165.09;;;16.10;98.73
79544;BME280;68994;47.176;7.534;2023-07-13T02:37:12;96159.22;;;16.08;99.26
79544;BME280;68994;47.176;7.534;2023-07-13T02:39:38;96166.84;;;16.01;99.04
79544;BME280;68994;47.176;7.534;2023-07-13T02:42:06;96161.88;;;15.89;98.75
79544;BME280;68994;47.176;7.534;2023-07-13T02:44:32;96158.72;;;15.82;98.52
79544;BME280;68994;47.176;7.534;2023-07-13T02:47:00;96164.84;;;15.87;99.95
79544;BME280;68994;47.176;7.534;2023-07-13T02:49:27;96163.28;;;15.81;99.22
79544;BME280;68994;47.176;7.534;2023-07-13T02:51:53;96162.50;;;15.81;99.44
79544;BME280;68994;47.176;7.534;2023-07-13T02:54:20;96152.97;;;15.88;99.76
79544;BME280;68994;47.176;7.534;2023-07-13T02:56:47;96154.81;;;15.93;99.96
79544;BME280;68994;47.176;7.534;2023-07-13T02:59:13;96158.38;;;15.88;99.63
79544;BME280;68994;47.176;7.534;2023-07-13T03:01:40;96162.38;;;15.91;99.97
79544;BME280;68994;47.176;7.534;2023-07-13T03:04:08;96158.84;;;15.95;100.00
79544;BME280;68994;47.176;7.534;2023-07-13T03:06:34;96155.25;;;16.00;100.00
79544;BME280;68994;47.176;7.534;2023-07-13T03:09:01;96159.63;;;15.96;100.00
79544;BME280;68994;47.176;7.534;2023-07-13T03:11:28;96153.69;;;15.99;100.00
79544;BME280;68994;47.176;7.534;2023-07-13T03:13:55;96156.66;;;15.98;100.00
79544;BME280;68994;47.176;7.534;2023-07-13T03:16:22;96141.66;;;15.91;100.00
79544;BME280;68994;47.176;7.534;2023-07-13T03:18:49;96137.31;;;15.95;100.00
79544;BME280;68994;47.176;7.534;2023-07-13T03:21:17;96144.34;;;15.91;100.00
79544;BME280;68994;47.176;7.534;2023-07-13T03:23:43;96145.19;;;15.87;99.88
79544;BME280;68994;47.176;7.534;2023-07-13T03:26:12;96149.00;;;15.86;100.00
79544;BME280;68994;47.176;7.534;2023-07-13T03:28:42;96148.16;;;15.85;100.00
79544;BME280;68994;47.176;7.534;2023-07-13T03:31:11;96149.00;;;15.86;100.00
79544;BME280;68994;47.176;7.534;2023-07-13T03:33:38;96148.75;;;15.82;100.00
79544;BME280;68994;47.176;7.534;2023-07-13T03:36:06;96141.78;;;15.81;100.00
79544;BME280;68994;47.176;7.534;2023-07-13T03:38:35;96154.22;;;15.77;100.00
79544;BME280;68994;47.176;7.534;2023-07-13T03:41:01;96146.97;;;15.72;99.95
79544;BME280;68994;47.176;7.534;2023-07-13T03:43:27;96147.88;;;15.63;99.48
79544;BME280;68994;47.176;7.534;2023-07-13T03:45:53;96138.78;;;15.58;99.74
79544;BME280;68994;47.176;7.534;2023-07-13T03:48:20;96144.44;;;15.57;99.96
79544;BME280;68994;47.176;7.534;2023-07-13T03:50:47;96147.13;;;15.57;99.88
79544;BME280;68994;47.176;7.534;2023-07-13T03:53:13;96154.66;;;15.55;100.00
79544;BME280;68994;47.176;7.534;2023-07-13T03:55:41;96154.09;;;15.58;100.00
79544;BME280;68994;47.176;7.534;2023-07-13T03:58:28;96144.97;;;15.59;100.00
79544;BME280;68994;47.176;7.534;2023-07-13T04:00:55;96146.44;;;15.70;99.53
79544;BME280;68994;47.176;7.534;2023-07-13T04:03:22;96156.06;;;15.76;98.83
79544;BME280;68994;47.176;7.534;2023-07-13T04:05:49;96156.63;;;15.79;98.77
79544;BME280;68994;47.176;7.534;2023-07-13T04:08:16;96152.31;;;15.77;99.27
79544;BME280;68994;47.176;7.534;2023-07-13T04:10:44;96146.69;;;15.74;99.34
79544;BME280;68994;47.176;7.534;2023-07-13T04:13:11;96151.22;;;15.73;99.13
79544;BME280;68994;47.176;7.534;2023-07-13T04:15:38;96150.69;;;15.76;97.90
79544;BME280;68994;47.176;7.534;2023-07-13T04:18:05;96152.81;;;15.80;97.82
79544;BME280;68994;47.176;7.534;2023-07-13T04:20:32;96160.59;;;15.81;97.36
79544;BME280;68994;47.176;7.534;2023-07-13T04:22:58;96158.66;;;15.87;96.35
79544;BME280;68994;47.176;7.534;2023-07-13T04:25:25;96165.19;;;15.81;97.09
79544;BME280;68994;47.176;7.534;2023-07-13T04:27:53;96158.34;;;15.64;98.20
79544;BME280;68994;47.176;7.534;2023-07-13T04:30:20;96174.47;;;15.64;98.83
79544;BME280;68994;47.176;7.534;2023-07-13T04:32:47;96177.19;;;15.64;98.03
79544;BME280;68994;47.176;7.534;2023-07-13T04:35:13;96177.69;;;15.66;98.58
79544;BME280;68994;47.176;7.534;2023-07-13T04:37:40;96184.16;;;15.65;98.45
79544;BME280;68994;47.176;7.534;2023-07-13T04:40:08;96186.25;;;15.68;98.13
79544;BME280;68994;47.176;7.534;2023-07-13T04:42:37;96194.84;;;15.75;97.96
79544;BME280;68994;47.176;7.534;2023-07-13T04:45:06;96199.16;;;15.71;97.74
79544;BME280;68994;47.176;7.534;2023-07-13T04:47:33;96198.41;;;15.66;99.10
79544;BME280;68994;47.176;7.534;2023-07-13T04:50:00;96196.81;;;15.65;99.32
79544;BME280;68994;47.176;7.534;2023-07-13T04:52:26;96203.50;;;15.67;98.85
79544;BME280;68994;47.176;7.534;2023-07-13T04:54:53;96221.28;;;15.63;98.86
79544;BME280;68994;47.176;7.534;2023-07-13T04:57:19;96222.97;;;15.59;98.39
79544;BME280;68994;47.176;7.534;2023-07-13T04:59:46;96222.44;;;15.57;98.43
79544;BME280;68994;47.176;7.534;2023-07-13T05:02:14;96227.22;;;15.60;98.49
79544;BME280;68994;47.176;7.534;2023-07-13T05:04:41;96219.69;;;15.62;98.60
79544;BME280;68994;47.176;7.534;2023-07-13T05:07:07;96215.91;;;15.63;98.93
79544;BME280;68994;47.176;7.534;2023-07-13T05:09:34;96209.63;;;15.73;98.48
79544;BME280;68994;47.176;7.534;2023-07-13T05:12:01;96208.53;;;15.79;98.38
79544;BME280;68994;47.176;7.534;2023-07-13T05:14:27;96213.69;;;15.75;98.83
79544;BME280;68994;47.176;7.534;2023-07-13T05:16:54;96215.06;;;15.68;98.42
79544;BME280;68994;47.176;7.534;2023-07-13T05:19:23;96220.22;;;15.64;98.52
79544;BME280;68994;47.176;7.534;2023-07-13T05:21:50;96230.94;;;15.69;98.63
79544;BME280;68994;47.176;7.534;2023-07-13T05:24:17;96229.56;;;15.72;98.87
79544;BME280;68994;47.176;7.534;2023-07-13T05:26:44;96234.94;;;15.72;98.32
79544;BME280;68994;47.176;7.534;2023-07-13T05:29:10;96233.09;;;15.67;98.83
79544;BME280;68994;47.176;7.534;2023-07-13T05:31:37;96247.56;;;15.76;97.69
79544;BME280;68994;47.176;7.534;2023-07-13T05:34:03;96251.88;;;15.77;97.31
79544;BME280;68994;47.176;7.534;2023-07-13T05:36:32;96256.72;;;15.75;97.83
79544;BME280;68994;47.176;7.534;2023-07-13T05:38:58;96258.06;;;15.73;97.44
79544;BME280;68994;47.176;7.534;2023-07-13T05:41:25;96246.84;;;15.66;97.52
79544;BME280;68994;47.176;7.534;2023-07-13T05:43:51;96243.63;;;15.64;98.08
79544;BME280;68994;47.176;7.534;2023-07-13T05:46:18;96230.56;;;15.52;98.00
79544;BME280;68994;47.176;7.534;2023-07-13T05:48:44;96255.97;;;15.65;98.04
79544;BME280;68994;47.176;7.534;2023-07-13T05:51:11;96261.84;;;15.77;98.14
79544;BME280;68994;47.176;7.534;2023-07-13T05:53:39;96262.22;;;15.89;99.19
79544;BME280;68994;47.176;7.534;2023-07-13T05:56:06;96258.13;;;15.97;98.48
79544;BME280;68994;47.176;7.534;2023-07-13T05:58:33;96253.44;;;16.08;98.56
79544;BME280;68994;47.176;7.534;2023-07-13T06:01:01;96237.78;;;16.34;99.58
79544;BME280;68994;47.176;7.534;2023-07-13T06:03:29;96234.31;;;16.53;99.12
79544;BME280;68994;47.176;7.534;2023-07-13T06:05:55;96249.13;;;16.74;98.96
79544;BME280;68994;47.176;7.534;2023-07-13T06:08:22;96247.50;;;16.73;97.31
79544;BME280;68994;47.176;7.534;2023-07-13T06:10:50;96256.75;;;16.67;97.69
79544;BME280;68994;47.176;7.534;2023-07-13T06:13:16;96253.81;;;16.63;97.56
79544;BME280;68994;47.176;7.534;2023-07-13T06:15:47;96261.41;;;16.61;97.47
79544;BME280;68994;47.176;7.534;2023-07-13T06:18:14;96259.56;;;16.57;96.19
79544;BME280;68994;47.176;7.534;2023-07-13T06:20:41;96264.97;;;16.57;96.29
79544;BME280;68994;47.176;7.534;2023-07-13T06:23:07;96261.13;;;16.63;97.29
79544;BME280;68994;47.176;7.534;2023-07-13T06:25:34;96259.28;;;16.77;97.66
79544;BME280;68994;47.176;7.534;2023-07-13T06:28:02;96270.91;;;16.78;95.95
79544;BME280;68994;47.176;7.534;2023-07-13T06:30:29;96272.91;;;16.91;96.98
79544;BME280;68994;47.176;7.534;2023-07-13T06:32:57;96282.78;;;16.96;96.62
79544;BME280;68994;47.176;7.534;2023-07-13T06:35:23;96276.75;;;16.85;93.98
79544;BME280;68994;47.176;7.534;2023-07-13T06:37:50;96281.59;;;16.83;93.78
79544;BME280;68994;47.176;7.534;2023-07-13T06:40:17;96286.94;;;16.88;93.89
79544;BME280;68994;47.176;7.534;2023-07-13T06:42:43;96287.53;;;17.04;96.07
79544;BME280;68994;47.176;7.534;2023-07-13T06:45:11;96283.09;;;17.13;94.27
79544;BME280;68994;47.176;7.534;2023-07-13T06:47:38;96283.50;;;17.20;94.38
79544;BME280;68994;47.176;7.534;2023-07-13T06:50:05;96290.28;;;17.37;89.62
79544;BME280;68994;47.176;7.534;2023-07-13T06:52:32;96300.28;;;17.17;92.35
79544;BME280;68994;47.176;7.534;2023-07-13T06:54:59;96300.06;;;17.14;93.75
79544;BME280;68994;47.176;7.534;2023-07-13T06:57:25;96290.31;;;17.18;94.13
79544;BME280;68994;47.176;7.534;2023-07-13T06:59:52;96283.94;;;17.28;95.24
79544;BME280;68994;47.176;7.534;2023-07-13T07:02:20;96287.00;;;17.40;92.40
79544;BME280;68994;47.176;7.534;2023-07-13T07:04:47;96291.38;;;17.36;93.89
79544;BME280;68994;47.176;7.534;2023-07-13T07:07:13;96299.53;;;17.31;93.43
79544;BME280;68994;47.176;7.534;2023-07-13T07:09:40;96308.13;;;17.33;92.40
79544;BME280;68994;47.176;7.534;2023-07-13T07:12:07;96300.41;;;17.45;93.07
79544;BME280;68994;47.176;7.534;2023-07-13T07:14:34;96308.38;;;17.69;90.75
79544;BME280;68994;47.176;7.534;2023-07-13T07:17:00;96302.34;;;17.91;88.18
79544;BME280;68994;47.176;7.534;2023-07-13T07:19:29;96305.56;;;17.93;90.66
79544;BME280;68994;47.176;7.534;2023-07-13T07:21:56;96302.41;;;18.05;90.36
79544;BME280;68994;47.176;7.534;2023-07-13T07:24:23;96308.22;;;18.26;85.20
79544;BME280;68994;47.176;7.534;2023-07-13T07:26:49;96305.44;;;18.45;80.06
79544;BME280;68994;47.176;7.534;2023-07-13T07:29:16;96304.31;;;18.60;80.52
79544;BME280;68994;47.176;7.534;2023-07-13T07:31:42;96309.72;;;18.74;80.28
79544;BME280;68994;47.176;7.534;2023-07-13T07:34:09;96310.09;;;18.95;80.32
79544;BME280;68994;47.176;7.534;2023-07-13T07:36:37;96314.88;;;19.12;79.81
79544;BME280;68994;47.176;7.534;2023-07-13T07:39:03;96316.53;;;19.22;78.41
79544;BME280;68994;47.176;7.534;2023-07-13T07:41:31;96306.59;;;19.31;78.99
79544;BME280;68994;47.176;7.534;2023-07-13T07:43:58;96313.03;;;19.58;77.14
79544;BME280;68994;47.176;7.534;2023-07-13T07:46:24;96321.63;;;19.60;74.28
79544;BME280;68994;47.176;7.534;2023-07-13T07:48:51;96319.22;;;19.58;73.93
79544;BME280;68994;47.176;7.534;2023-07-13T07:51:18;96320.31;;;19.57;75.29
79544;BME280;68994;47.176;7.534;2023-07-13T07:53:45;96324.16;;;19.56;78.10
79544;BME280;68994;47.176;7.534;2023-07-13T07:56:12;96319.41;;;19.62;79.32
79544;BME280;68994;47.176;7.534;2023-07-13T07:58:41;96331.09;;;19.71;79.45
79544;BME280;68994;47.176;7.534;2023-07-13T08:01:08;96319.56;;;19.79;77.94
79544;BME280;68994;47.176;7.534;2023-07-13T08:03:34;96320.97;;;19.77;74.04
79544;BME280;68994;47.176;7.534;2023-07-13T08:06:01;96326.94;;;19.88;74.64
79544;BME280;68994;47.176;7.534;2023-07-13T08:08:28;96329.69;;;19.96;75.08
79544;BME280;68994;47.176;7.534;2023-07-13T08:10:56;96319.97;;;19.95;69.45
79544;BME280;68994;47.176;7.534;2023-07-13T08:13:22;96324.06;;;20.15;75.75
79544;BME280;68994;47.176;7.534;2023-07-13T08:15:49;96327.63;;;20.25;74.78
79544;BME280;68994;47.176;7.534;2023-07-13T08:18:16;96328.59;;;20.29;74.86
79544;BME280;68994;47.176;7.534;2023-07-13T08:20:42;96320.44;;;20.20;75.77
79544;BME280;68994;47.176;7.534;2023-07-13T08:23:11;96311.94;;;20.13;76.58
79544;BME280;68994;47.176;7.534;2023-07-13T08:25:38;96314.47;;;20.09;76.57
79544;BME280;68994;47.176;7.534;2023-07-13T08:28:06;96313.63;;;20.00;76.78
79544;BME280;68994;47.176;7.534;2023-07-13T08:30:33;96307.56;;;19.94;76.35
79544;BME280;68994;47.176;7.534;2023-07-13T08:32:59;96310.69;;;19.88;73.02
79544;BME280;68994;47.176;7.534;2023-07-13T08:35:26;96308.03;;;19.96;74.33
79544;BME280;68994;47.176;7.534;2023-07-13T08:37:52;96306.03;;;20.11;72.44
79544;BME280;68994;47.176;7.534;2023-07-13T08:40:24;96310.06;;;20.22;72.47
79544;BME280;68994;47.176;7.534;2023-07-13T08:42:54;96310.75;;;20.28;74.00
79544;BME280;68994;47.176;7.534;2023-07-13T08:45:23;96312.53;;;20.41;71.83
79544;BME280;68994;47.176;7.534;2023-07-13T08:47:54;96309.50;;;20.43;70.03
79544;BME280;68994;47.176;7.534;2023-07-13T08:50:26;96308.69;;;20.73;70.76
79544;BME280;68994;47.176;7.534;2023-07-13T08:52:54;96300.59;;;21.00;69.95
79544;BME280;68994;47.176;7.534;2023-07-13T08:55:25;96309.41;;;21.40;68.17
79544;BME280;68994;47.176;7.534;2023-07-13T08:57:59;96307.03;;;21.56;66.57
79544;BME280;68994;47.176;7.534;2023-07-13T09:00:34;96304.00;;;21.75;68.95
79544;BME280;68994;47.176;7.534;2023-07-13T09:03:05;96312.13;;;21.84;70.13
79544;BME280;68994;47.176;7.534;2023-07-13T09:05:39;96303.16;;;21.75;62.21
79544;BME280;68994;47.176;7.534;2023-07-13T09:08:25;96311.63;;;21.82;65.89
79544;BME280;68994;47.176;7.534;2023-07-13T09:11:01;96306.84;;;21.79;63.04
79544;BME280;68994;47.176;7.534;2023-07-13T09:13:38;96310.69;;;21.69;61.10
79544;BME280;68994;47.176;7.534;2023-07-13T09:16:11;96316.59;;;21.71;60.72
79544;BME280;68994;47.176;7.534;2023-07-13T09:18:41;96315.78;;;21.79;65.40
79544;BME280;68994;47.176;7.534;2023-07-13T09:21:10;96316.59;;;21.80;63.92
79544;BME280;68994;47.176;7.534;2023-07-13T09:23:38;96301.44;;;21.61;61.74
79544;BME280;68994;47.176;7.534;2023-07-13T09:26:11;96306.31;;;22.03;63.00
79544;BME280;68994;47.176;7.534;2023-07-13T09:28:41;96317.13;;;22.20;61.07
79544;BME280;68994;47.176;7.534;2023-07-13T09:31:13;96313.41;;;22.42;64.65
79544;BME280;68994;47.176;7.534;2023-07-13T09:33:41;96304.69;;;22.02;58.98
79544;BME280;68994;47.176;7.534;2023-07-13T09:36:16;96314.19;;;21.70;59.07
79544;BME280;68994;47.176;7.534;2023-07-13T09:38:44;96320.91;;;21.81;60.55
79544;BME280;68994;47.176;7.534;2023-07-13T09:41:19;96317.03;;;21.99;60.09
79544;BME280;68994;47.176;7.534;2023-07-13T09:44:07;96313.97;;;22.10;58.69
79544;BME280;68994;47.176;7.534;2023-07-13T09:46:39;96311.81;;;23.01;56.75
79544;BME280;68994;47.176;7.534;2023-07-13T09:49:10;96311.94;;;24.35;51.81
79544;BME280;68994;47.176;7.534;2023-07-13T09:51:37;96317.13;;;25.39;53.07
79544;BME280;68994;47.176;7.534;2023-07-13T09:54:05;96309.63;;;26.04;46.60
79544;BME280;68994;47.176;7.534;2023-07-13T09:56:32;96303.09;;;26.89;43.39
79544;BME280;68994;47.176;7.534;2023-07-13T09:58:59;96314.84;;;28.45;45.26
79544;BME280;68994;47.176;7.534;2023-07-13T10:01:33;96315.09;;;29.10;39.96
79544;BME280;68994;47.176;7.534;2023-07-13T10:04:02;96304.78;;;30.73;36.53
79544;BME280;68994;47.176;7.534;2023-07-13T10:06:38;96308.06;;;30.93;34.42
79544;BME280;68994;47.176;7.534;2023-07-13T10:09:07;96323.50;;;31.01;38.23
79544;BME280;68994;47.176;7.534;2023-07-13T10:11:35;96316.91;;;31.20;36.46
79544;BME280;68994;47.176;7.534;2023-07-13T10:14:13;96313.34;;;31.12;38.09
79544;BME280;68994;47.176;7.534;2023-07-13T10:16:42;96327.22;;;32.32;34.39
79544;BME280;68994;47.176;7.534;2023-07-13T10:19:15;96317.81;;;32.98;32.37
79544;BME280;68994;47.176;7.534;2023-07-13T10:21:50;96322.09;;;33.42;31.25
79544;BME280;68994;47.176;7.534;2023-07-13T10:24:22;96312.00;;;33.99;33.24
79544;BME280;68994;47.176;7.534;2023-07-13T10:26:53;96313.91;;;34.69;29.58
79544;BME280;68994;47.176;7.534;2023-07-13T10:29:24;96310.75;;;34.07;30.82
79544;BME280;68994;47.176;7.534;2023-07-13T10:31:52;96308.59;;;33.59;30.40
79544;BME280;68994;47.176;7.534;2023-07-13T10:34:20;96306.34;;;32.96;35.55
79544;BME280;68994;47.176;7.534;2023-07-13T10:36:48;96303.53;;;33.25;31.13
79544;BME280;68994;47.176;7.534;2023-07-13T10:39:16;96307.13;;;34.25;30.03
79544;BME280;68994;47.176;7.534;2023-07-13T10:41:48;96301.84;;;34.41;28.76
79544;BME280;68994;47.176;7.534;2023-07-13T10:44:21;96308.31;;;33.14;31.60
79544;BME280;68994;47.176;7.534;2023-07-13T10:46:52;96309.00;;;33.46;34.29
79544;BME280;68994;47.176;7.534;2023-07-13T10:49:22;96303.44;;;33.68;32.23
79544;BME280;68994;47.176;7.534;2023-07-13T10:51:48;96303.47;;;33.54;32.97
79544;BME280;68994;47.176;7.534;2023-07-13T10:54:19;96292.44;;;34.31;31.64
79544;BME280;68994;47.176;7.534;2023-07-13T10:56:50;96298.44;;;32.48;31.95
79544;BME280;68994;47.176;7.534;2023-07-13T10:59:24;96298.44;;;30.24;37.84
79544;BME280;68994;47.176;7.534;2023-07-13T11:01:56;96299.88;;;29.16;40.31
79544;BME280;68994;47.176;7.534;2023-07-13T11:04:26;96296.69;;;28.37;43.74
79544;BME280;68994;47.176;7.534;2023-07-13T11:06:58;96288.91;;;31.11;36.65
79544;BME280;68994;47.176;7.534;2023-07-13T11:09:35;96291.38;;;32.79;33.13
79544;BME280;68994;47.176;7.534;2023-07-13T11:12:09;96287.78;;;32.32;32.33
79544;BME280;68994;47.176;7.534;2023-07-13T11:14:43;96294.16;;;32.68;33.26
79544;BME280;68994;47.176;7.534;2023-07-13T11:17:35;96288.09;;;31.06;33.96
79544;BME280;68994;47.176;7.534;2023-07-13T11:20:23;96298.97;;;29.65;36.98
79544;BME280;68994;47.176;7.534;2023-07-13T11:22:51;96298.53;;;28.53;38.50
79544;BME280;68994;47.176;7.534;2023-07-13T11:25:29;96293.38;;;27.85;43.64
79544;BME280;68994;47.176;7.534;2023-07-13T11:28:17;96301.13;;;27.05;45.47
79544;BME280;68994;47.176;7.534;2023-07-13T11:30:46;96302.31;;;26.24;44.76
79544;BME280;68994;47.176;7.534;2023-07-13T11:33:16;96297.78;;;25.72;48.54
79544;BME280;68994;47.176;7.534;2023-07-13T11:35:50;96303.63;;;25.30;48.72
79544;BME280;68994;47.176;7.534;2023-07-13T11:38:20;96299.91;;;24.85;51.36
79544;BME280;68994;47.176;7.534;2023-07-13T11:40:48;96312.97;;;24.42;48.44
79544;BME280;68994;47.176;7.534;2023-07-13T11:43:16;96313.19;;;24.37;49.93
79544;BME280;68994;47.176;7.534;2023-07-13T11:45:43;96303.31;;;24.94;51.48
79544;BME280;68994;47.176;7.534;2023-07-13T11:48:24;96299.03;;;24.69;48.61
79544;BME280;68994;47.176;7.534;2023-07-13T11:51:03;96303.47;;;24.61;51.97
79544;BME280;68994;47.176;7.534;2023-07-13T11:53:36;96299.44;;;24.46;51.09
79544;BME280;68994;47.176;7.534;2023-07-13T11:56:05;96295.81;;;24.42;50.23
79544;BME280;68994;47.176;7.534;2023-07-13T11:58:32;96290.81;;;24.44;49.65
79544;BME280;68994;47.176;7.534;2023-07-13T12:01:00;96294.50;;;25.38;52.98
79544;BME280;68994;47.176;7.534;2023-07-13T12:03:32;96281.56;;;27.81;47.27
79544;BME280;68994;47.176;7.534;2023-07-13T12:06:01;96292.47;;;29.47;39.10
79544;BME280;68994;47.176;7.534;2023-07-13T12:08:29;96288.44;;;29.74;37.29
79544;BME280;68994;47.176;7.534;2023-07-13T12:11:14;96284.81;;;30.94;38.28
79544;BME280;68994;47.176;7.534;2023-07-13T12:13:41;96287.59;;;31.63;32.62
79544;BME280;68994;47.176;7.534;2023-07-13T12:16:15;96278.31;;;32.11;33.13
79544;BME280;68994;47.176;7.534;2023-07-13T12:18:44;96275.19;;;32.38;34.53
79544;BME280;68994;47.176;7.534;2023-07-13T12:21:17;96273.22;;;32.53;33.46
79544;BME280;68994;47.176;7.534;2023-07-13T12:23:45;96272.44;;;32.70;32.11
79544;BME280;68994;47.176;7.534;2023-07-13T12:26:15;96266.75;;;33.42;32.82
79544;BME280;68994;47.176;7.534;2023-07-13T12:28:47;96264.06;;;33.06;30.83
79544;BME280;68994;47.176;7.534;2023-07-13T12:31:29;96267.31;;;32.65;33.56
79544;BME280;68994;47.176;7.534;2023-07-13T12:33:59;96271.50;;;30.96;33.65
79544;BME280;68994;47.176;7.534;2023-07-13T12:36:26;96261.44;;;30.66;31.26
79544;BME280;68994;47.176;7.534;2023-07-13T12:38:57;96263.09;;;30.33;33.00
79544;BME280;68994;47.176;7.534;2023-07-13T12:41:25;96255.72;;;29.01;35.24
79544;BME280;68994;47.176;7.534;2023-07-13T12:43:52;96260.13;;;28.79;39.44
79544;BME280;68994;47.176;7.534;2023-07-13T12:46:20;96258.19;;;28.34;41.70
79544;BME280;68994;47.176;7.534;2023-07-13T12:48:51;96252.34;;;27.89;41.35
79544;BME280;68994;47.176;7.534;2023-07-13T12:51:22;96245.81;;;27.54;42.53
79544;BME280;68994;47.176;7.534;2023-07-13T12:53:57;96250.53;;;26.99;44.06
79544;BME280;68994;47.176;7.534;2023-07-13T12:56:26;96258.38;;;26.65;46.21
79544;BME280;68994;47.176;7.534;2023-07-13T12:58:57;96254.97;;;26.88;44.94
79544;BME280;68994;47.176;7.534;2023-07-13T13:01:27;96260.47;;;26.56;45.88
79544;BME280;68994;47.176;7.534;2023-07-13T13:03:55;96251.75;;;26.34;46.55
79544;BME280;68994;47.176;7.534;2023-07-13T13:06:24;96253.06;;;26.56;43.01
79544;BME280;68994;47.176;7.534;2023-07-13T13:08:52;96251.66;;;27.33;45.32
79544;BME280;68994;47.176;7.534;2023-07-13T13:11:21;96253.66;;;27.56;41.36